createdAt,value
2022-11-22T00:00:43.336Z,70.77
2022-11-22T00:03:10.316Z,71.06
2022-11-22T00:05:37.508Z,71.02
2022-11-22T00:08:05.415Z,71.15
2022-11-22T00:10:32.870Z,71.11
2022-11-22T00:12:59.943Z,71.29
2022-11-22T00:15:26.922Z,71.77
2022-11-22T00:17:53.711Z,71.50
2022-11-22T00:20:21.015Z,71.43
2022-11-22T00:22:47.891Z,71.18
2022-11-22T00:25:15.125Z,71.13
2022-11-22T00:27:42.120Z,71.37
2022-11-22T00:30:09.784Z,71.11
2022-11-22T00:32:36.894Z,71.36
2022-11-22T00:35:04.976Z,71.31
2022-11-22T00:37:31.895Z,71.14
2022-11-22T00:39:58.741Z,71.29
2022-11-22T00:42:25.562Z,71.20
2022-11-22T00:44:52.393Z,71.17
2022-11-22T00:47:19.242Z,71.07
2022-11-22T00:49:46.077Z,70.86
2022-11-22T00:52:12.995Z,71.11
2022-11-22T00:54:39.903Z,70.95
2022-11-22T00:57:06.720Z,70.99
2022-11-22T00:59:33.605Z,71.34
2022-11-22T01:02:00.416Z,71.24
2022-11-22T01:04:27.272Z,71.48
2022-11-22T01:06:54.139Z,71.51
2022-11-22T01:09:23.134Z,71.24
2022-11-22T01:11:50.208Z,71.42
2022-11-22T01:14:17.720Z,71.20
2022-11-22T01:16:45.174Z,70.84
2022-11-22T01:19:12.375Z,71.50
2022-11-22T01:21:39.944Z,71.49
2022-11-22T01:24:07.391Z,71.52
2022-11-22T01:26:34.861Z,71.24
2022-11-22T01:29:01.948Z,70.82
2022-11-22T01:31:29.987Z,70.90
2022-11-22T01:33:58.787Z,70.46
2022-11-22T01:36:26.704Z,71.01
2022-11-22T01:38:53.740Z,71.07
2022-11-22T01:41:20.689Z,71.29
2022-11-22T01:43:47.521Z,71.57
2022-11-22T01:46:30.471Z,71.47
2022-11-22T01:49:05.439Z,71.44
2022-11-22T01:51:42.810Z,71.27
2022-11-22T01:54:18.090Z,71.28
2022-11-22T01:56:51.067Z,71.30
2022-11-22T01:59:22.351Z,71.18
2022-11-22T02:01:49.451Z,71.21
2022-11-22T02:04:18.627Z,71.09
2022-11-22T02:07:11.499Z,71.95
2022-11-22T02:09:40.473Z,72.12
2022-11-22T02:12:09.059Z,72.29
2022-11-22T02:14:36.408Z,72.57
2022-11-22T02:17:03.309Z,72.87
2022-11-22T02:19:43.048Z,72.09
2022-11-22T02:22:34.061Z,72.19
2022-11-22T02:25:21.749Z,71.85
2022-11-22T02:27:50.464Z,71.75
2022-11-22T02:30:17.928Z,71.66
2022-11-22T02:32:45.230Z,71.88
2022-11-22T02:35:21.299Z,71.56
2022-11-22T02:37:52.537Z,71.67
2022-11-22T02:40:20.677Z,73.01
2022-11-22T02:43:06.359Z,73.15
2022-11-22T02:45:33.419Z,73.32
2022-11-22T02:48:09.216Z,73.09
2022-11-22T02:50:36.448Z,73.14
2022-11-22T02:53:04.140Z,73.03
2022-11-22T02:55:30.985Z,73.00
2022-11-22T02:57:57.950Z,72.72
2022-11-22T03:00:24.813Z,72.78
2022-11-22T03:02:51.728Z,72.61
2022-11-22T03:05:18.855Z,72.97
2022-11-22T03:07:45.723Z,73.15
2022-11-22T03:10:12.620Z,73.13
2022-11-22T03:12:39.496Z,72.51
2022-11-22T03:15:06.763Z,72.62
2022-11-22T03:17:33.557Z,72.41
2022-11-22T03:20:00.400Z,72.32
2022-11-22T03:22:27.299Z,72.21
2022-11-22T03:24:54.087Z,72.38
2022-11-22T03:27:21.050Z,72.03
2022-11-22T03:29:47.822Z,72.36
2022-11-22T03:32:14.703Z,72.15
2022-11-22T03:34:41.512Z,71.74
2022-11-22T03:37:08.328Z,72.22
2022-11-22T03:39:35.172Z,72.88
2022-11-22T03:42:01.982Z,73.11
2022-11-22T03:44:28.821Z,73.20
2022-11-22T03:46:55.620Z,73.33
2022-11-22T03:49:22.477Z,73.56
2022-11-22T03:51:49.266Z,73.75
2022-11-22T03:54:16.130Z,73.76
2022-11-22T03:56:42.954Z,73.96
2022-11-22T03:59:09.739Z,73.63
2022-11-22T04:01:36.617Z,73.68
2022-11-22T04:04:03.496Z,73.73
2022-11-22T04:06:30.330Z,73.37
2022-11-22T04:08:57.493Z,73.36
2022-11-22T04:11:24.458Z,73.05
2022-11-22T04:14:09.738Z,73.26
2022-11-22T04:16:36.583Z,73.13
2022-11-22T04:19:03.395Z,73.15
2022-11-22T04:21:36.264Z,72.85
2022-11-22T04:24:28.064Z,72.59
2022-11-22T04:26:56.564Z,72.99
2022-11-22T04:29:23.836Z,73.05
2022-11-22T04:32:10.040Z,73.00
2022-11-22T04:34:37.282Z,73.29
2022-11-22T04:37:05.158Z,73.27
2022-11-22T04:39:32.425Z,73.48
2022-11-22T04:42:18.395Z,73.21
2022-11-22T04:44:46.116Z,73.43
2022-11-22T04:47:36.773Z,73.44
2022-11-22T04:50:27.282Z,73.52
2022-11-22T04:52:57.430Z,73.78
2022-11-22T04:55:24.537Z,73.78
2022-11-22T04:57:57.502Z,73.83
2022-11-22T05:00:27.526Z,73.91
2022-11-22T05:02:54.518Z,73.63
2022-11-22T05:05:21.296Z,73.83
2022-11-22T05:07:48.196Z,73.53
2022-11-22T05:10:15.355Z,73.18
2022-11-22T05:12:42.353Z,73.45
2022-11-22T05:15:11.274Z,73.93
2022-11-22T05:17:38.752Z,73.90
2022-11-22T05:20:07.968Z,74.24
2022-11-22T05:22:53.811Z,73.93
2022-11-22T05:25:25.312Z,74.39
2022-11-22T05:27:54.454Z,74.51
2022-11-22T05:30:21.346Z,74.17
2022-11-22T05:32:48.117Z,74.46
2022-11-22T05:35:15.065Z,74.78
2022-11-22T05:37:41.897Z,74.65
2022-11-22T05:40:09.920Z,74.93
2022-11-22T05:42:36.729Z,74.93
2022-11-22T05:45:04.145Z,74.94
2022-11-22T05:47:35.777Z,75.32
2022-11-22T05:50:04.052Z,75.20
2022-11-22T05:52:31.381Z,74.94
2022-11-22T05:54:58.332Z,75.10
2022-11-22T05:57:25.470Z,75.14
2022-11-22T05:59:52.545Z,75.05
2022-11-22T06:02:19.880Z,74.95
2022-11-22T06:04:46.780Z,74.79
2022-11-22T06:07:13.675Z,74.77
2022-11-22T06:09:40.592Z,75.16
2022-11-22T06:12:07.681Z,74.53
2022-11-22T06:14:39.973Z,74.30
2022-11-22T06:17:09.704Z,74.57
2022-11-22T06:19:36.481Z,74.94
2022-11-22T06:22:03.530Z,74.71
2022-11-22T06:24:30.301Z,74.70
2022-11-22T06:26:57.126Z,74.48
2022-11-22T06:29:24.117Z,74.70
2022-11-22T06:31:50.912Z,74.26
2022-11-22T06:34:17.715Z,74.63
2022-11-22T06:36:44.569Z,74.54
2022-11-22T06:39:11.469Z,74.70
2022-11-22T06:41:38.684Z,74.86
2022-11-22T06:44:07.949Z,74.98
2022-11-22T06:46:36.291Z,75.18
2022-11-22T06:49:03.807Z,75.58
2022-11-22T06:51:32.286Z,75.36
2022-11-22T06:53:59.313Z,75.85
2022-11-22T06:56:30.559Z,75.32
2022-11-22T06:58:57.927Z,75.16
2022-11-22T07:01:28.447Z,75.13
2022-11-22T07:03:58.554Z,75.12
2022-11-22T07:06:29.194Z,74.97
2022-11-22T07:08:56.604Z,75.53
2022-11-22T07:11:26.984Z,74.99
2022-11-22T07:13:57.300Z,75.12
2022-11-22T07:16:28.250Z,75.20
2022-11-22T07:18:55.044Z,75.38
2022-11-22T07:21:24.296Z,75.49
2022-11-22T07:23:53.844Z,75.94
2022-11-22T07:26:23.413Z,75.94
2022-11-22T07:28:50.302Z,76.08
2022-11-22T07:31:18.660Z,75.77
2022-11-22T07:33:46.180Z,76.14
2022-11-22T07:36:22.057Z,76.03
2022-11-22T07:38:49.752Z,75.96
2022-11-22T07:41:18.921Z,75.78
2022-11-22T07:43:46.927Z,75.72
2022-11-22T07:46:30.974Z,75.48
2022-11-22T07:48:59.032Z,75.26
2022-11-22T07:51:26.205Z,75.35
2022-11-22T07:53:54.516Z,75.17
2022-11-22T07:56:21.675Z,74.96
2022-11-22T07:58:48.499Z,74.37
2022-11-22T08:01:17.863Z,74.52
2022-11-22T08:03:45.980Z,74.64
2022-11-22T08:06:14.038Z,74.58
2022-11-22T08:08:41.270Z,74.52
2022-11-22T08:11:08.304Z,74.06
2022-11-22T08:13:35.891Z,74.16
2022-11-22T08:16:06.463Z,74.18
2022-11-22T08:18:34.871Z,73.96
2022-11-22T08:21:10.330Z,74.52
2022-11-22T08:23:38.417Z,74.44
2022-11-22T08:26:07.544Z,74.12
2022-11-22T08:28:35.022Z,74.19
2022-11-22T08:31:08.584Z,74.24
2022-11-22T08:33:35.810Z,74.13
2022-11-22T08:36:02.930Z,74.27
2022-11-22T08:38:30.151Z,74.34
2022-11-22T08:40:56.985Z,74.26
2022-11-22T08:43:24.483Z,74.56
2022-11-22T08:45:57.307Z,74.01
2022-11-22T08:48:28.243Z,74.52
2022-11-22T08:51:01.616Z,74.06
2022-11-22T08:53:31.915Z,74.27
2022-11-22T08:56:03.077Z,74.39
2022-11-22T08:58:32.108Z,74.25
2022-11-22T09:01:05.554Z,74.07
2022-11-22T09:03:33.601Z,73.76
2022-11-22T09:09:08.569Z,74.40
2022-11-22T09:11:40.462Z,74.11
2022-11-22T09:14:07.328Z,73.60
2022-11-22T09:16:34.187Z,74.31
2022-11-22T09:19:01.035Z,74.95
2022-11-22T09:21:27.909Z,74.41
2022-11-22T09:23:54.748Z,74.55
2022-11-22T09:26:25.153Z,74.14
2022-11-22T09:28:53.303Z,74.06
2022-11-22T09:31:22.545Z,73.11
2022-11-22T09:33:50.492Z,72.38
2022-11-22T09:36:21.655Z,72.87
2022-11-22T09:38:49.071Z,73.22
2022-11-22T09:41:16.069Z,73.88
2022-11-22T09:44:01.195Z,73.27
2022-11-22T09:46:53.520Z,73.78
2022-11-22T09:49:45.942Z,74.53
2022-11-22T09:52:28.660Z,73.71
2022-11-22T09:55:04.475Z,73.56
2022-11-22T09:57:42.663Z,74.31
2022-11-22T10:00:30.343Z,73.80
2022-11-22T10:03:13.589Z,73.44
2022-11-22T10:05:54.327Z,73.29
2022-11-22T10:08:48.800Z,73.84
2022-11-22T10:11:34.953Z,72.85
2022-11-22T10:14:17.299Z,71.18
2022-11-22T10:17:17.909Z,70.30
2022-11-22T10:20:06.401Z,70.26
2022-11-22T10:22:35.259Z,70.08
2022-11-22T10:25:15.059Z,71.20
2022-11-22T10:27:44.287Z,70.83
2022-11-22T10:30:21.143Z,71.07
2022-11-22T10:33:24.684Z,70.79
2022-11-22T10:36:26.834Z,70.46
2022-11-22T10:39:21.411Z,70.69
2022-11-22T10:42:28.898Z,70.25
2022-11-22T10:45:06.689Z,71.02
2022-11-22T10:48:04.899Z,70.05
2022-11-22T10:50:45.251Z,70.34
2022-11-22T10:53:51.777Z,69.93
2022-11-22T10:56:50.155Z,69.58
2022-11-22T10:59:49.871Z,68.90
2022-11-22T11:02:59.042Z,69.42
2022-11-22T11:11:40.268Z,68.01
2022-11-22T11:14:43.511Z,68.30
2022-11-22T11:17:18.695Z,68.05
2022-11-22T11:19:49.828Z,67.63
2022-11-22T11:22:51.568Z,67.00
2022-11-22T11:25:35.595Z,65.59
2022-11-22T11:28:31.038Z,65.86
2022-11-22T11:31:08.988Z,66.79
2022-11-22T11:33:38.982Z,66.12
2022-11-22T11:36:17.809Z,66.48
2022-11-22T11:38:45.626Z,66.58
2022-11-22T11:41:19.161Z,66.66
2022-11-22T11:43:47.245Z,65.99
2022-11-22T11:46:27.116Z,66.62
2022-11-22T11:49:17.359Z,65.53
2022-11-22T11:51:54.332Z,65.13
2022-11-22T11:54:46.375Z,65.92
2022-11-22T11:57:25.968Z,65.79
2022-11-22T11:59:53.883Z,65.78
2022-11-22T12:02:36.173Z,65.41
2022-11-22T12:05:12.311Z,66.54
2022-11-22T12:07:44.773Z,66.61
2022-11-22T12:10:49.344Z,65.60
2022-11-22T12:14:04.547Z,66.59
2022-11-22T12:16:43.363Z,66.71
2022-11-22T12:19:28.392Z,67.09
2022-11-22T12:22:47.831Z,66.98
2022-11-22T12:25:34.285Z,66.32
2022-11-22T12:28:18.088Z,66.72
2022-11-22T12:30:53.875Z,65.48
2022-11-22T12:33:31.539Z,66.33
2022-11-22T12:35:59.186Z,66.05
2022-11-22T12:38:41.181Z,65.70
2022-11-22T12:41:13.403Z,64.87
2022-11-22T12:43:53.687Z,66.16
2022-11-22T12:46:40.043Z,64.74
2022-11-22T12:49:43.349Z,65.49
2022-11-22T12:52:40.104Z,65.61
2022-11-22T12:55:25.183Z,66.31
2022-11-22T12:58:04.840Z,66.40
2022-11-22T13:00:40.905Z,66.24
2022-11-22T13:03:20.155Z,66.70
2022-11-22T13:05:54.594Z,68.03
2022-11-22T13:08:29.162Z,68.06
2022-11-22T13:11:17.392Z,68.07
2022-11-22T13:13:49.127Z,68.12
2022-11-22T13:16:16.562Z,67.12
2022-11-22T13:19:05.285Z,67.92
2022-11-22T13:21:56.303Z,68.04
2022-11-22T13:24:36.454Z,68.94
2022-11-22T13:27:30.887Z,68.90
2022-11-22T13:30:01.448Z,69.82
2022-11-22T13:32:34.290Z,69.34
2022-11-22T13:35:23.983Z,70.13
2022-11-22T13:37:55.343Z,69.52
2022-11-22T13:40:26.211Z,67.86
2022-11-22T13:43:21.545Z,69.53
2022-11-22T13:45:54.068Z,69.64
2022-11-22T13:48:42.106Z,68.37
2022-11-22T13:51:14.223Z,69.27
2022-11-22T13:53:44.668Z,69.09
2022-11-22T13:56:20.381Z,68.98
2022-11-22T13:59:04.443Z,69.12
2022-11-22T14:01:35.639Z,68.81
2022-11-22T14:04:19.601Z,69.01
2022-11-22T14:07:03.186Z,68.55
2022-11-22T14:09:37.748Z,68.59
2022-11-22T14:12:10.732Z,68.84
2022-11-22T14:15:04.883Z,69.02
2022-11-22T14:17:42.225Z,68.60
2022-11-22T14:20:45.994Z,68.89
2022-11-22T14:24:04.939Z,69.05
2022-11-22T14:27:01.951Z,69.81
2022-11-22T14:29:53.540Z,69.75
2022-11-22T14:32:26.056Z,70.14
2022-11-22T14:35:04.992Z,70.08
2022-11-22T14:37:31.872Z,69.69
2022-11-22T14:40:08.770Z,69.97
2022-11-22T14:42:42.840Z,69.80
2022-11-22T14:45:12.273Z,70.06
2022-11-22T14:48:00.236Z,70.28
2022-11-22T14:50:43.860Z,70.46
2022-11-22T14:53:34.877Z,70.47
2022-11-22T14:56:14.713Z,70.43
2022-11-22T14:58:57.713Z,69.89
2022-11-22T15:02:19.502Z,70.39
2022-11-22T15:09:14.768Z,70.51
2022-11-22T15:09:20.085Z,70.30
2022-11-22T15:12:09.088Z,70.32
2022-11-22T15:59:44.888Z,73.25
2022-11-22T16:02:32.000Z,73.16
2022-11-22T16:06:06.517Z,73.52
2022-11-22T16:07:55.254Z,73.39
2022-11-22T16:10:23.891Z,73.40
2022-11-22T16:12:52.452Z,73.72
2022-11-22T16:15:36.491Z,73.57
2022-11-22T16:18:18.171Z,74.04
2022-11-22T16:21:11.684Z,74.05
2022-11-22T16:23:43.190Z,73.83
2022-11-22T16:26:20.675Z,74.04
2022-11-22T16:28:51.130Z,74.04
2022-11-22T16:31:28.018Z,74.17
2022-11-22T16:33:56.061Z,74.34
2022-11-22T16:36:27.353Z,74.38
2022-11-22T16:38:54.285Z,74.12
2022-11-22T16:41:29.367Z,74.34
2022-11-22T16:44:03.004Z,73.92
2022-11-22T16:46:30.486Z,74.36
2022-11-22T16:48:57.438Z,73.98
2022-11-22T16:51:30.215Z,73.83
2022-11-22T16:54:00.764Z,74.24
2022-11-22T16:56:30.355Z,74.17
2022-11-22T16:58:58.770Z,74.58
2022-11-22T17:01:32.602Z,74.40
2022-11-22T17:04:01.624Z,74.18
2022-11-22T17:06:31.014Z,74.16
2022-11-22T17:09:00.211Z,74.00
2022-11-22T17:11:31.855Z,74.51
2022-11-22T17:14:00.451Z,74.30
2022-11-22T17:16:27.322Z,74.40
2022-11-22T17:18:54.195Z,74.56
2022-11-22T17:21:37.023Z,74.81
2022-11-22T17:24:22.916Z,74.96
2022-11-22T17:26:49.789Z,74.75
2022-11-22T17:29:42.832Z,74.75
2022-11-22T17:32:03.426Z,75.30
2022-11-22T17:34:30.464Z,75.09
2022-11-22T17:36:57.443Z,75.42
2022-11-22T17:39:24.345Z,75.13
2022-11-22T17:41:51.275Z,75.41
2022-11-22T17:44:18.622Z,75.22
2022-11-22T17:46:47.078Z,75.38
2022-11-22T17:49:16.293Z,75.23
2022-11-22T17:51:43.844Z,75.63
2022-11-22T17:54:10.800Z,75.68
2022-11-22T17:56:37.803Z,75.51
2022-11-22T17:59:05.081Z,75.28
2022-11-22T18:01:32.498Z,75.40
2022-11-22T18:03:59.388Z,75.20
2022-11-22T18:06:26.422Z,75.38
2022-11-22T18:08:53.418Z,75.53
2022-11-22T18:11:20.806Z,75.38
2022-11-22T18:13:47.910Z,75.00
2022-11-22T18:16:17.229Z,75.36
2022-11-22T18:19:00.537Z,74.93
2022-11-22T18:21:29.529Z,74.64
2022-11-22T18:24:01.172Z,75.26
2022-11-22T18:26:39.326Z,75.03
2022-11-22T18:31:54.966Z,75.07
2022-11-22T18:34:23.014Z,75.21
2022-11-22T18:36:57.478Z,74.99
2022-11-22T18:39:37.497Z,74.93
2022-11-22T18:42:16.695Z,75.18
2022-11-22T18:44:45.764Z,75.00
2022-11-22T18:47:12.779Z,74.77
2022-11-22T18:49:39.931Z,74.82
2022-11-22T18:52:06.963Z,74.71
2022-11-22T18:54:34.347Z,75.15
2022-11-22T18:57:01.467Z,75.18
2022-11-22T18:59:28.515Z,75.01
2022-11-22T19:01:58.405Z,74.85
2022-11-22T19:04:25.330Z,74.96
2022-11-22T19:06:52.221Z,74.93
2022-11-22T19:09:19.399Z,74.71
2022-11-22T19:11:46.407Z,74.86
2022-11-22T19:14:13.662Z,74.72
2022-11-22T19:16:40.716Z,74.49
2022-11-22T19:19:11.962Z,74.33
2022-11-22T19:21:38.977Z,74.94
2022-11-22T19:24:06.325Z,74.95
2022-11-22T19:26:33.343Z,75.13
2022-11-22T19:29:02.751Z,75.19
2022-11-22T19:31:31.531Z,75.22
2022-11-22T19:33:59.467Z,75.21
2022-11-22T19:36:33.218Z,75.07
2022-11-22T19:39:02.601Z,75.15
2022-11-22T19:41:30.924Z,75.22
2022-11-22T19:43:58.419Z,74.91
2022-11-22T19:46:26.521Z,75.26
2022-11-22T19:48:55.953Z,75.15
2022-11-22T19:51:24.235Z,75.04
2022-11-22T19:53:59.324Z,75.07
2022-11-22T19:56:32.053Z,74.93
2022-11-22T19:59:01.662Z,75.13
2022-11-22T20:01:34.784Z,75.27
2022-11-22T20:04:06.278Z,75.33
2022-11-22T20:06:36.160Z,75.13
2022-11-22T20:09:14.113Z,75.45
2022-11-22T20:11:45.664Z,75.62
2022-11-22T20:14:12.559Z,75.54
2022-11-22T20:16:42.883Z,75.41
2022-11-22T20:19:12.163Z,75.29
2022-11-22T20:21:39.830Z,75.56
2022-11-22T20:24:07.639Z,75.35
2022-11-22T20:26:34.729Z,75.22
2022-11-22T20:29:08.063Z,75.10
2022-11-22T20:31:37.162Z,75.72
2022-11-22T20:34:04.391Z,75.43
2022-11-22T20:36:34.382Z,75.80
2022-11-22T20:39:06.799Z,75.50
2022-11-22T20:41:37.763Z,75.50
2022-11-22T20:44:04.918Z,75.45
2022-11-22T20:46:31.699Z,75.35
2022-11-22T20:48:58.539Z,75.52
2022-11-22T20:51:29.103Z,75.50
2022-11-22T20:54:00.132Z,75.18
2022-11-22T20:56:27.185Z,75.55
2022-11-22T20:58:54.409Z,75.45
2022-11-22T21:01:24.748Z,75.47
2022-11-22T21:03:52.769Z,75.62
2022-11-22T21:06:21.555Z,75.24
2022-11-22T21:08:49.237Z,75.49
2022-11-22T21:11:26.066Z,75.35
2022-11-22T21:13:53.797Z,75.19
2022-11-22T21:16:24.922Z,75.35
2022-11-22T21:18:56.202Z,75.27
2022-11-22T21:21:25.053Z,75.05
2022-11-22T21:23:55.078Z,75.32
2022-11-22T21:26:24.330Z,75.60
2022-11-22T21:28:52.687Z,75.55
2022-11-22T21:31:20.880Z,75.59
2022-11-22T21:33:48.091Z,75.50
2022-11-22T21:36:15.039Z,75.64
2022-11-22T21:38:42.040Z,75.67
2022-11-22T21:44:02.027Z,75.27
2022-11-22T21:46:29.031Z,75.39
2022-11-22T21:48:56.065Z,75.05
2022-11-22T21:51:25.730Z,75.02
2022-11-22T21:54:00.168Z,75.60
2022-11-22T21:56:27.633Z,75.67
2022-11-22T21:58:54.711Z,75.57
2022-11-22T22:01:22.513Z,75.79
2022-11-22T22:03:49.541Z,75.47
2022-11-22T22:06:16.390Z,75.88
2022-11-22T22:08:43.246Z,75.59
2022-11-22T22:11:10.115Z,75.68
2022-11-22T22:13:37.042Z,75.87
2022-11-22T22:16:12.696Z,75.85
2022-11-22T22:18:39.567Z,75.84
2022-11-22T22:21:09.533Z,76.02
2022-11-22T22:23:38.287Z,75.70
2022-11-22T22:26:08.455Z,75.62
2022-11-22T22:28:37.471Z,75.77
2022-11-22T22:31:21.562Z,75.66
2022-11-22T22:33:56.950Z,75.88
2022-11-22T22:36:26.017Z,75.66
2022-11-22T22:38:54.118Z,75.78
2022-11-22T22:41:20.951Z,75.61
2022-11-22T22:43:48.905Z,75.45
2022-11-22T22:46:19.823Z,75.52
2022-11-22T22:48:48.244Z,75.32
2022-11-22T22:51:30.659Z,75.43
2022-11-22T22:53:59.091Z,75.92
2022-11-22T22:56:28.530Z,75.72
2022-11-22T22:58:56.933Z,75.57
2022-11-22T23:01:26.919Z,76.01
2022-11-22T23:03:59.402Z,75.83
2022-11-22T23:06:30.399Z,76.21
2022-11-22T23:08:58.377Z,75.95
2022-11-22T23:11:47.051Z,76.27
2022-11-22T23:14:18.425Z,76.14
2022-11-22T23:16:45.609Z,76.12
2022-11-22T23:19:12.670Z,76.17
2022-11-22T23:21:39.723Z,75.90
2022-11-22T23:24:07.997Z,76.08
2022-11-22T23:26:35.093Z,75.77
2022-11-22T23:29:02.043Z,75.78
2022-11-22T23:31:28.917Z,75.80
2022-11-22T23:33:55.805Z,75.91
2022-11-22T23:36:23.182Z,75.69
2022-11-22T23:38:49.973Z,75.79
2022-11-22T23:41:20.082Z,75.30
2022-11-22T23:43:47.874Z,75.25
2022-11-22T23:46:18.334Z,75.01
2022-11-22T23:48:47.181Z,74.88
2022-11-22T23:51:15.980Z,74.79
2022-11-22T23:53:43.056Z,74.82
2022-11-22T23:56:15.079Z,74.64
2022-11-22T23:58:44.996Z,74.97
